Résultats de la compétition "Chpt Rég MD LNPCCO" du 14-03-2010 organisée par le club 5907
     
  Télécharger le fichier CSV.  
     
     

 Circuit "D"

Licence Nom Prénom Temps CN
précédent
Score sur
la course
Différence
19136TANTARTDelphine0:28:1640444891+847
7045LOTERIELaurine0:31:2843744394+20
14911LAMINETTEPauline0:33:1439284160+232
18632CUVILLIERSPerrine0:34:5435133961+448
17577FACHAUXAngélique0:36:0440283833-195
20200LEPERQUEOphelie0:36:5232173750+533
18611LANQUETINCéline0:39:4238643482-382
20572GUILMAINMelanie0:40:5730313376+345
18299GOURLAINMathilde0:42:3428743248+374
20215SIXPauline0:43:2728163182+366
19238CAMASMandye0:43:5131033153+50
20213DECOOPMANClémentine0:48:5830082823-185
14245RICHARDNicole0:50:0631132760-353
2888MOULIEREM-Bernadett0:50:5331522717-435
21323VANOVERBERGHECamille0:53:1226312599-32
20439GOLECZoé1:00:2430002289-711
20224SELINGUECécile1:00:5924732267-206
2885LECOYERAnnick1:03:3027142177-537
20302TREULIEREmmanuelle1:06:4211092073+964
9172POULAINGael1:17:0529971794-1203
14164EJSMONTMartine1:27:1918311583-248
22911SIXYvette1:45:30N/A1310N/A
15894LUDEWIG-JAMESCarol1:47:0821281290-838
22235RIMETZMarcelline2:13:3901034N/A
22349MAZINGUELucie2:18:47N/A996N/A
22558DOZIASLune2:22:43N/A969N/A
22803CLAVELNathalie2:50:25N/A811N/A
22804CLAVELMatéoN/AN/A0N/A

  Indice de confiance du circuit (moyenne des différences entre CN et score sur la course des 3 à 10 premiers) : 234






 Retour